• Join FlightAware (Why Join?)
  • Login
  • US Flag 
06:49AM EDT


 

Airport Tracker/Info


-or-


 

Live Flight TrackerFlight Track Log ✈ SWA1298 ✈ 27-Apr-2013 ✈ KBWI - KMCO

Flight Track Log - Related Links

Times and Time Zones

All times are in EDT time to prevent confusion due to time zone crossing. See the SWA1298 flight status page for this flight to view local times or setup timezone preferences in your user account.

Time Position Orientation Groundspeed Altitude Reporting Facility
EDT Latitude Longitude Course Direction KTS MPH feet Rate Location/Type
06:35AM 39.1667 -76.7500 171° South 212 244 2,400  Level Potomac TRACON
06:36AM 39.1000 -76.7333 169° South 250 288 5,400 2,640 Climbing Potomac TRACON
06:37AM 39.0500 -76.6667 134° Southeast 289 333 7,700 2,760 Climbing Potomac TRACON
06:38AM 38.9833 -76.6333 159° South 304 350 11,000 2,520 Climbing Potomac TRACON
06:39AM 38.9000 -76.6333 180° South 346 398 12,500 1,980 Climbing Potomac TRACON
06:40AM 38.8461 -76.6472 191° South 364 419 14,000 2,400 Climbing Washington Center
06:41AM 38.5002 -76.7100 171° South  Level FlightAware Approximate
06:41AM 38.7481 -76.6722 191° South 370 426 16,700  Level Washington Center
06:42AM 38.6478 -76.7028 193° South 370 426 18,300 1,800 Climbing Washington Center
06:43AM 38.5389 -76.7278 190° South 375 432 20,300 2,040 Climbing Washington Center
06:44AM 38.4267 -76.7128 174° South 400 460 22,400 1,920 Climbing Washington Center
06:45AM 38.3100 -76.6950 173° South 406 467 24,100 1,620 Climbing Washington Center
06:46AM 38.1933 -76.6775 173° South 417 480 25,700 1,200 Climbing Washington Center
06:47AM 38.0703 -76.6625 175° South 429 494 26,600 960 Climbing Washington Center
06:48AM 37.9433 -76.6478 175° South 452 520 27,600 1,260 Climbing Washington Center
06:49AM 37.8139 -76.6642 186° South 464 534 29,100 1,740 Climbing Washington Center
06:50AM 37.6886 -76.6783 185° South 464 534 31,100 1,800 Climbing Washington Center
06:51AM 37.5675 -76.6947 186° South 454 522 32,700 1,260 Climbing Washington Center
06:52AM 37.4464 -76.7139 187° South 448 516 33,700 1,080 Climbing Washington Center
06:53AM 37.3333 -76.7542 196° South 434 499 34,900 1,080 Climbing Washington Center
06:54AM 37.2244 -76.7994 198° South 422 486 35,900 480 Climbing Washington Center
06:55AM 37.1156 -76.8472 199° South 422 486 36,000  Climbing Washington Center
06:56AM 37.0064 -76.8950 199° South 422 486 36,000  Level Washington Center
06:57AM 36.8975 -76.9397 198° South 422 486 36,000  Level Washington Center
06:58AM 36.7886 -76.9847 198° South 417 480 36,000  Level Washington Center
06:59AM 36.6794 -77.0292 198° South 417 480 36,000  Level Washington Center
07:00AM 36.5725 -77.0764 200° South 417 480 36,000  Level Washington Center
07:01AM 36.4614 -77.1183 197° South 417 480 36,000  Level Washington Center
07:02AM 36.3481 -77.1678 199° South 422 486 36,000  Level Washington Center
07:03AM 36.2369 -77.2117 198° South 427 491 36,000  Level Washington Center
07:04AM 36.1300 -77.2558 198° South 420 483 36,000  Level Washington Center
07:05AM 36.0167 -77.2997 197° South 420 483 36,000  Level Washington Center
07:06AM 35.9075 -77.3436 198° South 426 490 36,000  Level Washington Center
07:07AM 35.7964 -77.3872 198° South 426 490 36,000  Level Washington Center
07:08AM 35.6892 -77.4308 198° South 426 490 36,000  Level Washington Center
07:09AM 35.5922 -77.4950 208° Southwest 413 475 36,000  Level Washington Center
07:10AM 35.5075 -77.5772 218° Southwest 393 452 36,000  Level Washington Center
07:11AM 35.4225 -77.6617 219° Southwest 398 458 36,000  Level Washington Center
07:12AM 35.3375 -77.7436 218° Southwest 398 458 36,000  Level Washington Center
07:13AM 35.2547 -77.8253 219° Southwest 398 458 36,000  Level Washington Center
07:14AM 35.1719 -77.9042 218° Southwest 398 458 36,000  Level Washington Center
07:15AM 35.0847 -77.9881 218° Southwest 398 458 36,000  Level Washington Center
07:16AM 35.0017 -78.0692 219° Southwest 398 458 36,000  Level Washington Center
07:17AM 34.9186 -78.1503 219° Southwest 398 458 36,000  Level Washington Center
07:18AM 34.8333 -78.2311 218° Southwest 398 458 36,000  Level Washington Center
07:19AM 34.6900 -78.3731 219° Southwest 395 455 36,000  Level Jacksonville Center
07:20AM 34.6111 -78.4428 216° Southwest 395 455 36,000  Level Jacksonville Center
07:21AM 34.5242 -78.5228 217° Southwest 390 449 36,000  Level Jacksonville Center
07:22AM 34.4336 -78.6206 222° Southwest 397 457 36,000  Level Jacksonville Center
07:23AM 34.3528 -78.6950 217° Southwest 403 464 36,000  Level Jacksonville Center
07:24AM 34.2658 -78.7744 217° Southwest 403 464 36,000  Level Jacksonville Center
07:25AM 34.1767 -78.8567 217° Southwest 403 464 36,000  Level Jacksonville Center
07:26AM 34.0917 -78.9383 219° Southwest 403 464 36,000  Level Jacksonville Center
07:27AM 34.0044 -79.0172 217° Southwest 403 464 36,000  Level Jacksonville Center
07:28AM 33.9172 -79.1011 219° Southwest 409 471 36,000  Level Jacksonville Center
07:29AM 33.8297 -79.1825 218° Southwest 404 465 36,000  Level Jacksonville Center
07:30AM 33.7425 -79.2611 217° Southwest 404 465 36,000  Level Jacksonville Center
07:31AM 33.6467 -79.3425 215° Southwest 404 465 36,000  Level Jacksonville Center
07:32AM 33.5547 -79.4158 214° Southwest 404 465 36,000  Level Jacksonville Center
07:33AM 33.4628 -79.4892 214° Southwest 404 465 36,000  Level Jacksonville Center
07:34AM 33.3711 -79.5647 215° Southwest 404 465 36,000  Level Jacksonville Center
07:35AM 33.2769 -79.6403 214° Southwest 404 465 36,000  Level Jacksonville Center
07:36AM 33.1831 -79.7183 215° Southwest 410 472 36,000  Level Jacksonville Center
07:37AM 33.0889 -79.7911 213° Southwest 410 472 36,000 -60 Level Jacksonville Center
07:38AM 32.9944 -79.8636 213° Southwest 410 472 35,900  Descending Jacksonville Center
07:39AM 32.9044 -79.9408 216° Southwest 410 472 36,000  Climbing Jacksonville Center
07:40AM 32.8308 -80.0003 214° Southwest 410 472 36,000  Level Jacksonville Center
07:41AM 32.7303 -80.0800 214° Southwest 410 472 36,000  Level Jacksonville Center
07:42AM 32.6381 -80.1542 214° Southwest 410 472 36,000  Level Jacksonville Center
07:43AM 32.5475 -80.2261 214° Southwest 405 466 36,000  Level Jacksonville Center
07:44AM 32.4572 -80.2975 214° Southwest 405 466 36,000  Level Jacksonville Center
07:45AM 32.3628 -80.3717 214° Southwest 405 466 36,000  Level Jacksonville Center
07:46AM 32.2703 -80.4456 214° Southwest 405 466 36,000  Level Jacksonville Center
07:47AM 32.1756 -80.5192 213° Southwest 411 473 36,000  Level Jacksonville Center
07:48AM 32.0769 -80.6000 215° Southwest 398 458 36,000  Level Jacksonville Center
07:49AM 31.9800 -80.6736 213° Southwest 413 475 36,000  Level Jacksonville Center
07:50AM 31.8936 -80.7417 214° Southwest 413 475 36,000  Level Jacksonville Center
07:51AM 31.7883 -80.8200 212° Southwest 413 475 36,000  Level Jacksonville Center
07:52AM 31.6914 -80.8953 213° Southwest 413 475 36,000  Level Jacksonville Center
07:53AM 31.6047 -80.9631 214° Southwest 407 468 36,000  Level Jacksonville Center
07:54AM 31.4994 -81.0433 213° Southwest 418 481 36,000  Level Jacksonville Center
07:55AM 31.4108 -81.1106 213° Southwest 418 481 36,000  Level Jacksonville Center
07:56AM 31.3053 -81.1758 208° Southwest 428 493 36,000  Level Jacksonville Center
07:57AM 31.1819 -81.1733 179° South 423 487 36,000 -360 Level Jacksonville Center
07:58AM 31.0567 -81.1683 178° South 439 505 35,300 -1,020 Descending Jacksonville Center
07:59AM 30.9314 -81.1633 178° South 444 511 34,000 -660 Descending Jacksonville Center
08:00AM 30.8081 -81.1583 178° South 444 511 34,000  Level Jacksonville Center
08:01AM 30.6847 -81.1558 179° South 444 511 34,000  Level Jacksonville Center
08:02AM 30.5594 -81.1533 179° South 444 511 34,000  Level Jacksonville Center
08:03AM 30.4319 -81.1483 178° South 450 518 34,000 -60 Level Jacksonville Center
08:04AM 30.3006 -81.1433 178° South 463 533 33,900  Descending Jacksonville Center
08:05AM 30.1772 -81.1408 179° South 457 526 34,000  Climbing Jacksonville Center
08:06AM 30.0519 -81.1383 179° South 457 526 34,000 -600 Level Jacksonville Center
08:07AM 29.9244 -81.1336 178° South 457 526 32,800 -2,400 Descending Jacksonville Center
08:08AM 29.7972 -81.1311 179° South 457 526 29,300 -3,600 Descending Jacksonville Center
08:09AM 29.6572 -81.1264 178° South 462 532 25,600 -3,840 Descending Jacksonville Center
08:10AM 29.5297 -81.1239 179° South 462 532 21,700 -3,360 Descending Jacksonville Center
08:11AM 29.4067 -81.1167 177° South 457 526 18,900 -2,700 Descending Jacksonville Center
08:12AM 29.2875 -81.1139 179° South 452 520 16,300 -2,220 Descending Jacksonville Center
08:13AM 29.1789 -81.1017 174° South 424 488 14,500 -2,100 Descending Jacksonville Center
08:14AM 29.0722 -81.0942 176° South 399 459 12,200 -1,260 Descending Jacksonville Center
08:15AM 28.9658 -81.0867 176° South 388 447 12,000 -360 Descending Jacksonville Center
08:16AM 28.8614 -81.0814 177° South 388 447 11,500 -780 Descending Jacksonville Center
08:17AM 28.7719 -81.1019 191° South 364 419 10,500 -1,200 Descending Jacksonville Center
08:18AM 28.6908 -81.1200 191° South 331 381 9,200 -720 Descending Jacksonville Center
08:19AM 28.6000 -81.1333 187° South 309 356 9,100 -540 Descending Orlando TRACON
08:20AM 28.5167 -81.1667 199° South 309 356 8,200 -1,200 Descending Orlando TRACON
08:22AM 28.4333 -81.1833 190° South 297 342 6,700 -1,500 Descending Orlando TRACON
08:23AM 28.3500 -81.1833 180° South 240 276 5,100 -1,200 Descending Orlando TRACON
08:24AM 28.3167 -81.2333 233° Southwest 202 232 4,200 -1,200 Descending Orlando TRACON
08:25AM 28.3333 -81.2833 291° West 165 190 2,800 -1,560 Descending Orlando TRACON
08:26AM 28.3667 -81.2833 360° North 136 157 1,300 -1,200 Descending Orlando TRACON
08:27AM 28.4000 -81.2833 360° North 132 152 400 -840 Descending Orlando TRACON
08:29AM 28.4167 -81.3000 336° Northwest  Level FlightAware Approximate
08:36AM 28.4294 -81.3090 336° Northwest  Level Estimated
08:37AM 28.4294 -81.3090 336° Northwest  Level Estimated
08:38AM 28.4294 -81.3090 336° Northwest  Level Estimated